Time;durP1;ratioP1;P1;durP2;ratioP2;P2;SDS_P1;SDS_P2;PMS_P1;PMS_P2;Temp;Humidity;BMP_temperature;BMP_pressure;BME280_temperature;BME280_humidity;BME280_pressure;Samples;Min_cycle;Max_cycle;Signal;HPM_P1;HPM_P2
2022/09/15 00:00:07;;;;;;;;;54.67;43.00;;;;;24.05;56.22;100293.91;5078082;27;45455;-74
2022/09/15 00:02:33;;;;;;;;;38.00;33.67;;;;;23.96;55.99;100278.41;5078419;27;45303;-77
2022/09/15 00:04:59;;;;;;;;;25.33;18.00;;;;;23.80;55.97;100254.44;5077223;28;45450;-76
2022/09/15 00:07:26;;;;;;;;;9.00;9.00;;;;;23.86;56.07;100271.91;5074762;27;46219;-75
2022/09/15 00:09:51;;;;;;;;;5.75;4.25;;;;;23.99;56.12;100299.66;5076041;28;45295;-75
2022/09/15 00:12:20;;;;;;;;;2.75;2.25;;;;;23.93;56.05;100291.97;5078435;28;45379;-78
2022/09/15 00:14:45;;;;;;;;;2.00;2.00;;;;;23.63;56.04;100236.72;5078959;27;45509;-75
2022/09/15 00:17:15;;;;;;;;;2.00;2.00;;;;;23.88;55.92;100291.41;5078132;27;45542;-73
2022/09/15 00:19:41;;;;;;;;;1.00;1.00;;;;;23.68;55.95;100252.44;5076011;27;45512;-77
2022/09/15 00:22:06;;;;;;;;;1.00;1.00;;;;;23.71;55.96;100266.50;5072743;28;45417;-78
2022/09/15 00:24:32;;;;;;;;;1.00;1.00;;;;;23.90;56.01;100306.41;5073275;28;45494;-76
2022/09/15 00:26:58;;;;;;;;;0.50;0.00;;;;;23.54;56.00;100239.94;5073854;27;45531;-75
2022/09/15 00:29:24;;;;;;;;;0.00;0.00;;;;;23.90;56.14;100295.69;5074694;27;45649;-77
2022/09/15 00:31:49;;;;;;;;;0.25;0.25;;;;;23.85;55.63;100286.25;5076688;28;45593;-78
2022/09/15 00:34:15;;;;;;;;;0.25;0.25;;;;;23.87;56.08;100293.22;5075113;28;45625;-76
2022/09/15 00:36:41;;;;;;;;;0.00;0.00;;;;;23.85;56.15;100294.28;5075858;28;46918;-75
2022/09/15 00:39:06;;;;;;;;;0.00;0.00;;;;;23.76;55.83;100282.31;5073005;28;45394;-74
2022/09/15 00:41:33;;;;;;;;;0.00;0.00;;;;;23.60;55.65;100268.94;5074206;28;46724;-75
2022/09/15 00:44:03;;;;;;;;;0.00;0.00;;;;;23.64;55.62;100289.22;5073279;28;45450;-75
2022/09/15 00:46:35;;;;;;;;;0.00;0.00;;;;;23.54;55.81;100271.13;5075375;28;46288;-76
2022/09/15 00:49:07;;;;;;;;;0.00;0.00;;;;;23.71;55.56;100316.44;5078619;27;45415;-73
2022/09/15 00:51:53;;;;;;;;;0.00;0.00;;;;;23.39;55.67;100262.22;5076748;28;45418;-75
2022/09/15 00:54:24;;;;;;;;;0.00;0.00;;;;;23.45;55.65;100273.41;5078204;27;45545;-73
2022/09/15 00:56:54;;;;;;;;;0.00;0.00;;;;;23.68;55.95;100316.59;5076658;28;47658;-74
2022/09/15 00:59:25;;;;;;;;;0.00;0.00;;;;;23.45;56.01;100273.41;5077921;28;45362;-76
2022/09/15 01:02:05;;;;;;;;;1.00;1.00;;;;;23.61;56.14;100307.22;5078154;27;45574;-74
2022/09/15 01:04:31;;;;;;;;;0.00;0.00;;;;;23.60;55.91;100305.53;5077851;27;45233;-73
2022/09/15 01:07:02;;;;;;;;;0.00;0.00;;;;;23.53;56.10;100309.50;5073480;28;46195;-74
2022/09/15 01:09:40;;;;;;;;;1.00;1.00;;;;;23.35;56.20;100306.97;5073636;27;45880;-73
2022/09/15 01:12:09;;;;;;;;;1.00;1.00;;;;;23.53;56.60;100334.41;5060033;28;45401;-75
2022/09/15 01:14:36;;;;;;;;;1.00;1.00;;;;;23.33;56.33;100308.00;5073350;28;46089;-75
2022/09/15 01:17:46;;;;;;;;;1.00;1.00;;;;;23.51;56.58;100341.66;5076581;28;46881;-76
2022/09/15 01:20:31;;;;;;;;;2.00;1.50;;;;;23.47;56.56;100335.66;5077697;27;45331;-73
2022/09/15 01:23:44;;;;;;;;;2.00;2.00;;;;;23.45;56.66;100334.88;5078103;27;45256;-73
2022/09/15 01:26:45;;;;;;;;;0.50;0.50;;;;;23.44;56.79;100343.84;5068422;28;45576;-72
2022/09/15 01:29:46;;;;;;;;;1.00;0.50;;;;;23.43;56.40;100335.91;5076756;27;45591;-73
2022/09/15 01:35:10;;;;;;;;;1.50;1.25;;;;;23.38;56.85;100343.34;5073417;28;45514;-75
2022/09/15 01:37:45;;;;;;;;;2.00;2.00;;;;;23.31;56.88;100339.31;5073126;27;45881;-70
2022/09/15 01:40:14;;;;;;;;;5.00;3.50;;;;;23.31;57.02;100342.81;5072682;27;46978;-72
2022/09/15 01:42:43;;;;;;;;;3.00;2.00;;;;;23.02;56.97;100299.09;5072984;27;45454;-71
2022/09/15 01:45:22;;;;;;;;;2.00;2.00;;;;;22.95;57.07;100298.53;5077347;27;45406;-73
2022/09/15 01:47:52;;;;;;;;;1.00;1.00;;;;;23.26;57.05;100345.75;5077309;27;45439;-76
2022/09/15 01:50:23;;;;;;;;;2.00;2.00;;;;;23.07;57.19;100321.91;5072629;27;45979;-72
2022/09/15 01:53:01;;;;;;;;;2.25;2.25;;;;;23.18;57.35;100342.69;5076898;27;45404;-78
2022/09/15 01:55:54;;;;;;;;;1.50;1.50;;;;;23.13;57.31;100365.25;5078967;27;45438;-72
2022/09/15 01:58:20;;;;;;;;;1.50;1.00;;;;;23.13;57.18;100347.38;5075253;28;45567;-74
2022/09/15 02:00:55;;;;;;;;;2.00;2.00;;;;;23.14;57.54;100358.97;5079786;28;45389;-76
2022/09/15 02:03:54;;;;;;;;;1.33;1.33;;;;;23.07;57.41;100353.09;5079093;28;45440;-73
2022/09/15 02:06:42;;;;;;;;;4.25;2.00;;;;;22.84;57.56;100322.28;5059987;28;45455;-78
2022/09/15 02:09:23;;;;;;;;;1.00;1.00;;;;;23.06;57.29;100360.25;5074850;28;45567;-72
2022/09/15 02:12:32;;;;;;;;;1.00;1.00;;;;;22.92;57.17;100346.78;5093291;27;46550;-78
2022/09/15 02:15:07;;;;;;;;;1.00;1.00;;;;;23.00;57.45;100357.06;5045311;28;45447;-77
2022/09/15 02:17:38;;;;;;;;;1.00;0.25;;;;;23.01;57.24;100356.09;5074772;27;45508;-72
2022/09/15 02:20:33;;;;;;;;;2.00;1.00;;;;;22.81;57.38;100328.66;5079349;28;45388;-73
2022/09/15 02:23:07;;;;;;;;;0.50;0.50;;;;;23.00;57.14;100357.06;5079627;28;46157;-73
2022/09/15 02:25:39;;;;;;;;;1.00;1.00;;;;;22.89;57.32;100344.25;5073553;27;45502;-74
2022/09/15 02:28:08;;;;;;;;;1.00;1.00;;;;;22.91;57.33;100344.19;5075822;28;45447;-71
2022/09/15 02:30:41;;;;;;;;;0.75;0.75;;;;;22.63;57.33;100311.00;5085399;27;45465;-74
2022/09/15 02:33:12;;;;;;;;;1.00;1.00;;;;;22.85;57.31;100351.59;5068188;28;46520;-74
2022/09/15 02:35:40;;;;;;;;;3.75;1.00;;;;;22.63;57.38;100311.00;5068002;28;45956;-74
2022/09/15 02:38:08;;;;;;;;;1.50;1.00;;;;;22.85;57.12;100350.69;5074459;27;45495;-73
2022/09/15 02:40:38;;;;;;;;;2.67;2.00;;;;;22.77;56.96;100347.59;5076269;27;45602;-72
2022/09/15 02:43:09;;;;;;;;;2.25;2.25;;;;;22.11;56.96;100244.41;5079875;28;45522;-74
2022/09/15 02:45:34;;;;;;;;;2.25;2.25;;;;;22.79;56.70;100359.94;5057179;28;45370;-74
2022/09/15 02:48:00;;;;;;;;;3.00;3.00;;;;;22.39;56.84;100289.19;5075321;27;45784;-71
2022/09/15 02:50:26;;;;;;;;;2.00;2.00;;;;;22.54;57.69;100311.50;5075879;27;45434;-73
2022/09/15 02:52:53;;;;;;;;;2.67;2.67;;;;;22.73;57.72;100338.91;5075343;27;46207;-73
2022/09/15 02:55:18;;;;;;;;;2.00;2.00;;;;;22.67;57.54;100322.38;5075867;28;45503;-73
2022/09/15 02:57:45;;;;;;;;;5.00;3.00;;;;;22.68;57.37;100327.59;5079188;28;45353;-72
2022/09/15 03:00:12;;;;;;;;;3.00;3.00;;;;;22.81;56.70;100343.84;5079527;27;45280;-73
2022/09/15 03:02:38;;;;;;;;;3.33;2.00;;;;;22.92;56.97;100359.25;5078891;27;46040;-74
2022/09/15 03:05:05;;;;;;;;;6.00;4.00;;;;;22.92;56.77;100368.16;5079161;28;45249;-73
2022/09/15 03:07:31;;;;;;;;;4.00;4.00;;;;;22.91;56.63;100362.88;5075631;27;45463;-73
2022/09/15 03:10:00;;;;;;;;;3.67;3.67;;;;;22.72;56.39;100336.31;5075596;27;45556;-74
2022/09/15 03:12:26;;;;;;;;;4.00;3.00;;;;;22.85;56.28;100354.25;5072710;28;46919;-73
2022/09/15 03:14:52;;;;;;;;;4.00;4.00;;;;;22.84;56.30;100357.84;5074914;27;45522;-73
2022/09/15 03:17:17;;;;;;;;;3.00;3.00;;;;;22.74;56.54;100347.78;5074749;27;45535;-74
2022/09/15 03:19:44;;;;;;;;;4.00;4.00;;;;;22.86;55.87;100360.47;5075221;27;45385;-74
2022/09/15 03:22:10;;;;;;;;;5.00;4.33;;;;;22.72;55.94;100339.84;5078584;27;45685;-74
2022/09/15 03:24:36;;;;;;;;;5.33;5.33;;;;;22.81;55.74;100366.03;5078255;27;45317;-72
2022/09/15 03:27:02;;;;;;;;;5.67;4.67;;;;;22.72;55.93;100355.88;5078756;27;45424;-72
2022/09/15 03:29:31;;;;;;;;;5.67;5.67;;;;;22.38;56.09;100299.00;5079001;27;45452;-73
2022/09/15 03:31:57;;;;;;;;;3.00;3.00;;;;;22.71;56.30;100362.16;5078779;27;45430;-73
2022/09/15 03:34:23;;;;;;;;;2.33;2.33;;;;;22.73;55.94;100365.63;5078704;27;45368;-73
2022/09/15 03:36:48;;;;;;;;;3.00;3.00;;;;;22.75;55.79;100361.03;5079019;28;45352;-74
2022/09/15 03:39:15;;;;;;;;;3.33;3.00;;;;;22.60;55.62;100341.38;5079146;28;45519;-73
2022/09/15 03:41:40;;;;;;;;;3.00;2.67;;;;;22.67;55.33;100343.72;5078660;27;46104;-75
2022/09/15 03:44:06;;;;;;;;;4.33;4.00;;;;;22.71;55.27;100348.81;5077315;28;45341;-73
2022/09/15 03:46:31;;;;;;;;;4.00;4.00;;;;;22.67;55.15;100344.59;5073959;28;45480;-75
2022/09/15 03:49:00;;;;;;;;;4.00;3.00;;;;;22.66;54.88;100358.88;5073364;28;45517;-74
2022/09/15 03:51:26;;;;;;;;;6.00;6.00;;;;;22.18;56.47;100323.16;5074530;27;45696;-73
2022/09/15 03:53:52;;;;;;;;;6.00;4.33;;;;;22.47;55.74;100363.47;5074156;28;45566;-74
2022/09/15 03:56:25;;;;;;;;;5.67;3.33;;;;;22.48;55.40;100357.22;5090332;27;45380;-75
2022/09/15 03:58:51;;;;;;;;;3.00;3.00;;;;;22.54;55.17;100368.41;5072526;28;45582;-72
2022/09/15 04:01:18;;;;;;;;;3.00;3.00;;;;;22.53;54.71;100374.69;5073531;27;46547;-72
2022/09/15 04:03:45;;;;;;;;;3.33;3.00;;;;;22.32;54.82;100344.66;5073057;28;45593;-72
2022/09/15 04:06:12;;;;;;;;;4.00;4.00;;;;;22.46;55.05;100373.28;5075257;27;46350;-73
2022/09/15 04:08:37;;;;;;;;;4.67;4.00;;;;;22.40;55.03;100374.47;5078268;27;45301;-73
2022/09/15 04:11:07;;;;;;;;;3.67;3.67;;;;;22.43;54.08;100376.13;5078022;28;45517;-73
2022/09/15 04:13:35;;;;;;;;;4.33;4.33;;;;;22.41;54.69;100380.69;5075951;28;45361;-72
2022/09/15 04:16:03;;;;;;;;;6.00;5.00;;;;;22.36;54.13;100378.25;5074812;27;45317;-74
2022/09/15 04:18:34;;;;;;;;;7.00;5.00;;;;;22.22;54.79;100362.09;5074687;28;44813;-74
2022/09/15 04:21:02;;;;;;;;;5.67;3.67;;;;;22.23;54.40;100375.38;5074253;27;46671;-73
2022/09/15 04:23:31;;;;;;;;;5.00;3.67;;;;;22.29;54.43;100381.34;5073944;27;45751;-72
2022/09/15 04:26:03;;;;;;;;;6.00;5.00;;;;;22.29;54.32;100386.66;5074375;27;45416;-73
2022/09/15 04:28:34;;;;;;;;;6.00;4.33;;;;;22.27;54.19;100389.41;5073742;27;45513;-74
2022/09/15 04:31:09;;;;;;;;;3.00;3.00;;;;;22.23;54.22;100388.72;5074360;27;46317;-73
2022/09/15 04:33:36;;;;;;;;;4.33;4.00;;;;;22.22;54.44;100383.44;5076117;27;45428;-75
2022/09/15 04:36:07;;;;;;;;;4.33;4.33;;;;;22.12;54.63;100379.50;5066966;28;45488;-75
2022/09/15 04:38:34;;;;;;;;;8.67;6.00;;;;;21.94;54.39;100362.63;5068734;27;45756;-73
2022/09/15 04:41:00;;;;;;;;;5.00;5.00;;;;;22.07;54.83;100392.19;5077626;27;46339;-73
2022/09/15 04:43:27;;;;;;;;;4.00;4.00;;;;;21.99;54.27;100388.13;5077611;27;45470;-74
2022/09/15 04:45:53;;;;;;;;;5.00;5.00;;;;;21.79;54.44;100358.97;5074972;28;45455;-73
2022/09/15 04:48:20;;;;;;;;;5.00;5.00;;;;;22.05;54.18;100407.44;5073727;27;45384;-74
2022/09/15 04:50:45;;;;;;;;;7.67;5.67;;;;;21.96;53.74;100392.75;5073731;28;45559;-74
2022/09/15 04:53:14;;;;;;;;;6.67;6.00;;;;;21.87;54.07;100394.06;5073840;28;45975;-73
2022/09/15 04:55:40;;;;;;;;;6.33;5.33;;;;;21.92;54.75;100401.84;5072279;28;45589;-72
2022/09/15 04:58:06;;;;;;;;;6.33;4.00;;;;;21.79;53.74;100385.63;5073659;27;45690;-74
2022/09/15 05:00:38;;;;;;;;;6.67;5.33;;;;;21.94;53.74;100415.97;5073167;27;45530;-75
2022/09/15 05:03:03;;;;;;;;;6.33;4.67;;;;;21.86;53.62;100413.69;5073734;27;45452;-72
2022/09/15 05:05:33;;;;;;;;;4.00;4.00;;;;;21.95;53.57;100425.72;5073252;27;45458;-72
2022/09/15 05:08:02;;;;;;;;;6.00;5.33;;;;;21.97;53.39;100427.34;5073524;27;45470;-73
2022/09/15 05:10:31;;;;;;;;;5.00;5.00;;;;;22.00;53.51;100437.00;5072974;27;46497;-73
2022/09/15 05:13:00;;;;;;;;;6.00;6.00;;;;;21.95;53.69;100429.22;5072492;27;45491;-74
2022/09/15 05:15:26;;;;;;;;;4.33;4.33;;;;;21.75;53.36;100405.34;5072757;28;45394;-73
2022/09/15 05:17:51;;;;;;;;;7.67;5.67;;;;;21.93;53.44;100440.91;5068709;28;45409;-74
2022/09/15 05:20:17;;;;;;;;;6.33;6.00;;;;;21.92;53.20;100445.34;5076791;28;46145;-74
2022/09/15 05:22:43;;;;;;;;;6.00;6.00;;;;;21.53;53.20;100390.44;5075704;27;45553;-74
2022/09/15 05:25:09;;;;;;;;;6.00;6.00;;;;;21.90;53.31;100452.59;5063125;28;45955;-73
2022/09/15 05:27:38;;;;;;;;;8.00;7.00;;;;;21.51;53.24;100394.97;5074183;28;45653;-73
2022/09/15 05:30:04;;;;;;;;;6.00;6.00;;;;;21.81;53.25;100447.72;5077140;27;47206;-74
2022/09/15 05:32:33;;;;;;;;;7.00;6.00;;;;;21.77;53.38;100457.66;5072983;28;45379;-75
2022/09/15 05:34:59;;;;;;;;;4.33;4.33;;;;;21.84;53.68;100458.22;5076136;28;45657;-73
2022/09/15 05:37:24;;;;;;;;;5.67;5.67;;;;;21.68;53.65;100435.91;5075517;28;45572;-76
2022/09/15 05:39:50;;;;;;;;;7.00;5.00;;;;;21.76;53.77;100457.75;5080876;27;45360;-74
2022/09/15 05:42:15;;;;;;;;;6.00;6.00;;;;;21.75;53.25;100454.19;5079659;28;45520;-73
2022/09/15 05:44:44;;;;;;;;;5.33;5.00;;;;;21.81;53.60;100466.38;5078923;28;45321;-73
2022/09/15 05:47:10;;;;;;;;;4.33;3.33;;;;;21.79;53.84;100469.09;5074990;27;45537;-74
2022/09/15 05:49:35;;;;;;;;;5.67;4.00;;;;;21.79;54.03;100468.25;5074176;28;46501;-75
2022/09/15 05:52:01;;;;;;;;;6.00;5.00;;;;;21.79;53.92;100476.25;5079325;28;45383;-74
2022/09/15 05:54:28;;;;;;;;;4.33;4.33;;;;;21.64;54.21;100447.66;5080086;27;45489;-72
2022/09/15 05:56:53;;;;;;;;;5.33;5.00;;;;;21.81;53.94;100475.22;5082621;28;45602;-73
2022/09/15 05:59:19;;;;;;;;;5.00;5.00;;;;;21.86;53.73;100472.34;5089784;27;46809;-73
2022/09/15 06:01:45;;;;;;;;;4.00;4.00;;;;;21.70;53.34;100442.03;5077466;28;45420;-73
2022/09/15 06:04:11;;;;;;;;;4.33;3.00;;;;;21.84;53.64;100458.22;5077102;28;45483;-74
2022/09/15 06:06:36;;;;;;;;;4.67;4.00;;;;;22.12;53.20;100488.84;5079852;28;45309;-74
2022/09/15 06:09:04;;;;;;;;;4.00;4.00;;;;;22.03;52.99;100459.03;5076210;27;46395;-73
2022/09/15 06:11:32;;;;;;;;;4.00;3.67;;;;;21.82;52.86;100428.09;5076706;27;45755;-76
2022/09/15 06:14:00;;;;;;;;;2.33;2.33;;;;;21.97;53.05;100453.13;5074680;28;45397;-74
2022/09/15 06:16:26;;;;;;;;;5.33;3.67;;;;;22.23;52.79;100483.88;5076377;27;45428;-74
2022/09/15 06:18:53;;;;;;;;;7.00;6.00;;;;;22.27;53.11;100496.13;5075830;27;46172;-74
2022/09/15 06:21:21;;;;;;;;;5.33;5.33;;;;;22.12;53.22;100467.53;5079833;27;45367;-72
2022/09/15 06:23:54;;;;;;;;;6.00;5.67;;;;;21.98;52.47;100439.72;5078075;27;45492;-73
2022/09/15 06:26:21;;;;;;;;;4.67;4.00;;;;;22.11;52.31;100453.28;5075585;28;45435;-73
2022/09/15 06:29:05;;;;;;;;;5.33;5.33;;;;;22.46;51.82;100503.19;5078371;28;46092;-73
2022/09/15 06:31:32;;;;;;;;;9.33;6.00;;;;;22.51;51.92;100506.47;5075138;28;45403;-74
2022/09/15 06:33:58;;;;;;;;;5.00;5.00;;;;;22.32;52.03;100479.88;5076166;27;45479;-74
2022/09/15 06:36:28;;;;;;;;;6.33;6.33;;;;;22.53;51.98;100504.59;5079660;27;45471;-72
2022/09/15 06:38:55;;;;;;;;;5.00;5.00;;;;;22.14;51.44;100439.84;5076994;27;46969;-72
2022/09/15 06:41:21;;;;;;;;;7.00;5.33;;;;;22.50;51.62;100489.59;5075750;27;45545;-75
2022/09/15 06:43:48;;;;;;;;;8.00;7.00;;;;;22.43;51.15;100473.03;5079025;27;45415;-74
2022/09/15 06:46:19;;;;;;;;;10.00;6.33;;;;;22.53;51.36;100484.09;5079595;27;45502;-74
2022/09/15 06:48:45;;;;;;;;;9.00;5.00;;;;;22.70;51.13;100512.59;5065836;28;46229;-73
2022/09/15 06:51:15;;;;;;;;;7.33;7.33;;;;;22.73;51.12;100503.56;5077646;27;45614;-75
2022/09/15 06:53:42;;;;;;;;;12.00;7.33;;;;;22.81;51.35;100526.25;5075363;27;45767;-73
2022/09/15 06:56:15;;;;;;;;;8.00;6.67;;;;;22.71;50.63;100508.09;5090965;27;45483;-73
2022/09/15 06:58:42;;;;;;;;;9.33;6.33;;;;;23.00;50.69;100536.84;5078993;27;46262;-75
2022/09/15 07:01:13;;;;;;;;;9.33;7.00;;;;;22.76;50.44;100493.59;5082747;27;45454;-76
2022/09/15 07:03:42;;;;;;;;;9.00;8.33;;;;;23.09;50.42;100548.88;5083633;27;45545;-74
2022/09/15 07:06:10;;;;;;;;;9.00;9.00;;;;;22.94;50.38;100517.59;5083365;27;45359;-73
2022/09/15 07:08:36;;;;;;;;;14.33;10.00;;;;;23.17;50.03;100549.31;5080968;27;45461;-73
2022/09/15 07:11:13;;;;;;;;;9.67;8.67;;;;;23.18;49.75;100545.72;5081425;27;45492;-73
2022/09/15 07:13:39;;;;;;;;;10.33;8.00;;;;;23.24;49.67;100556.06;5078126;27;45660;-74
2022/09/15 07:16:07;;;;;;;;;11.00;9.33;;;;;23.11;49.78;100522.91;5078190;27;45701;-75
2022/09/15 07:18:50;;;;;;;;;10.00;10.00;;;;;23.37;49.21;100568.75;5078770;27;45457;-73
2022/09/15 07:21:18;;;;;;;;;5.00;4.00;;;;;23.43;49.63;100573.78;5066286;28;45376;-74
2022/09/15 07:23:48;;;;;;;;;10.00;8.00;;;;;23.44;48.89;100573.72;5077773;28;45563;-73
2022/09/15 07:26:19;;;;;;;;;10.67;9.33;;;;;23.36;48.78;100554.53;5075520;27;45592;-73
2022/09/15 07:28:49;;;;;;;;;12.00;10.33;;;;;23.54;48.77;100573.19;5077544;27;45592;-74
2022/09/15 07:31:20;;;;;;;;;11.33;10.33;;;;;23.61;48.25;100574.56;5077849;28;45335;-74
2022/09/15 07:33:46;;;;;;;;;12.33;11.00;;;;;23.59;48.60;100581.84;5079103;28;45487;-74
2022/09/15 07:36:13;;;;;;;;;9.67;8.33;;;;;23.42;48.13;100553.31;5071005;27;45278;-75
2022/09/15 07:38:42;;;;;;;;;11.33;8.00;;;;;23.62;48.39;100584.34;5081204;28;46793;-74
2022/09/15 07:41:10;;;;;;;;;9.33;7.33;;;;;23.68;47.92;100571.50;5081799;28;45439;-74
2022/09/15 07:43:37;;;;;;;;;9.00;9.00;;;;;23.34;47.70;100520.81;5084231;27;45534;-77
2022/09/15 07:46:07;;;;;;;;;14.00;10.33;;;;;23.74;47.89;100589.03;5095329;27;45473;-76
2022/09/15 07:48:37;;;;;;;;;14.67;9.33;;;;;23.58;47.51;100559.56;5079555;27;45552;-74
2022/09/15 07:51:06;;;;;;;;;12.33;9.00;;;;;23.60;47.42;100559.50;5082103;27;45420;-78
2022/09/15 07:53:32;;;;;;;;;15.67;14.00;;;;;23.67;47.14;100566.22;5076380;27;45467;-72
2022/09/15 07:56:02;;;;;;;;;18.00;15.00;;;;;23.72;46.85;100590.88;5075911;27;45424;-73
2022/09/15 07:58:29;;;;;;;;;12.33;11.00;;;;;23.71;47.78;100594.53;5082252;27;45387;-76
2022/09/15 08:01:00;;;;;;;;;16.67;13.00;;;;;23.67;47.36;100585.78;5082649;27;45258;-75
2022/09/15 08:03:26;;;;;;;;;13.00;11.00;;;;;23.38;46.87;100525.91;5076347;28;45362;-74
2022/09/15 08:05:59;;;;;;;;;12.33;9.67;;;;;23.77;46.61;100580.84;5081015;28;45239;-75
2022/09/15 08:08:25;;;;;;;;;9.67;9.67;;;;;23.36;46.32;100508.25;5080863;27;46150;-78
2022/09/15 08:10:51;;;;;;;;;11.00;10.33;;;;;23.43;46.34;100509.63;5083886;27;45858;-75
2022/09/15 08:13:17;;;;;;;;;9.00;9.00;;;;;23.88;46.34;100572.22;5081826;28;45388;-74
2022/09/15 08:15:44;;;;;;;;;10.67;8.00;;;;;23.99;45.68;100579.63;5100267;27;45485;-75
2022/09/15 08:18:10;;;;;;;;;10.67;10.00;;;;;24.23;45.59;100596.97;5079555;28;45261;-78
2022/09/15 08:20:45;;;;;;;;;18.00;15.67;;;;;24.23;44.53;100613.03;5086342;27;45462;-78
2022/09/15 08:23:11;;;;;;;;;17.67;14.00;;;;;23.83;45.11;100579.66;5079609;28;45507;-76
2022/09/15 08:25:38;;;;;;;;;16.33;10.00;;;;;23.89;45.34;100604.25;5077991;28;45522;-75
2022/09/15 08:28:04;;;;;;;;;9.00;9.00;;;;;23.87;44.93;100606.13;5079313;27;45503;-75
2022/09/15 08:30:33;;;;;;;;;13.00;12.00;;;;;23.92;44.39;100613.91;5076419;27;45526;-74
2022/09/15 08:32:58;;;;;;;;;11.00;9.00;;;;;23.11;45.06;100480.19;5075954;28;45256;-76
2022/09/15 08:35:24;;;;;;;;;14.33;10.33;;;;;23.81;44.19;100601.13;5073988;28;45347;-75
2022/09/15 08:37:52;;;;;;;;;13.33;13.33;;;;;23.97;44.05;100627.03;5075527;27;45478;-77
2022/09/15 08:40:34;;;;;;;;;11.67;11.33;;;;;24.09;43.96;100648.59;5074015;28;45361;-74
2022/09/15 08:43:07;;;;;;;;;13.00;10.67;;;;;24.05;44.18;100647.03;5074383;28;45769;-75
2022/09/15 08:46:03;;;;;;;;;8.67;8.00;;;;;24.21;44.14;100640.84;5081629;27;45563;-76
2022/09/15 08:48:37;;;;;;;;;6.00;6.00;;;;;24.29;43.86;100635.91;5064613;28;47840;-76
2022/09/15 08:51:13;;;;;;;;;9.00;7.00;;;;;23.91;43.65;100553.31;5080536;27;45225;-77
2022/09/15 08:53:52;;;;;;;;;6.67;6.67;;;;;24.19;43.62;100581.19;5069892;28;45365;-75
2022/09/15 08:56:19;;;;;;;;;4.67;4.67;;;;;24.41;42.78;100597.72;5066462;28;45550;-73
2022/09/15 08:58:45;;;;;;;;;5.00;5.00;;;;;24.85;43.20;100657.72;5073546;27;46087;-69
2022/09/15 09:01:43;;;;;;;;;6.00;5.00;;;;;24.89;42.98;100651.19;5074781;28;45627;-72
2022/09/15 09:04:46;;;;;;;;;5.67;5.67;;;;;25.15;41.30;100646.97;5046072;28;45547;-73
2022/09/15 09:07:43;;;;;;;;;4.50;4.50;;;;;25.28;41.04;100636.41;5096533;27;45471;-72
2022/09/15 09:10:23;;;;;;;;;4.00;4.00;;;;;25.39;41.06;100629.44;5076524;27;45393;-72
2022/09/15 09:12:58;;;;;;;;;5.00;4.33;;;;;25.61;40.99;100628.09;5077478;28;45476;-74
2022/09/15 09:15:38;;;;;;;;;8.67;7.00;;;;;25.87;39.70;100639.06;5082220;27;45416;-73
2022/09/15 09:18:32;;;;;;;;;8.75;6.50;;;;;25.90;40.61;100647.75;5081228;27;45804;-73
2022/09/15 09:20:57;;;;;;;;;4.50;4.00;;;;;25.91;39.55;100645.91;5079588;28;45813;-73
2022/09/15 09:23:31;;;;;;;;;4.25;4.00;;;;;26.08;39.87;100648.41;5075205;28;45479;-72
2022/09/15 09:26:03;;;;;;;;;4.25;4.25;;;;;26.02;39.60;100638.91;5077170;28;45355;-72
2022/09/15 09:28:41;;;;;;;;;5.25;5.25;;;;;25.76;39.23;100561.88;5077391;27;45497;-75
2022/09/15 09:31:18;;;;;;;;;5.00;4.50;;;;;25.99;39.65;100595.31;5077135;27;46352;-73
2022/09/15 09:33:49;;;;;;;;;5.75;5.75;;;;;25.93;39.22;100564.38;5077931;27;45598;-72
2022/09/15 09:36:15;;;;;;;;;7.00;7.00;;;;;26.31;38.80;100635.31;5077685;27;45439;-73
2022/09/15 09:38:44;;;;;;;;;3.75;3.75;;;;;26.44;39.21;100644.28;5077824;27;45649;-73
2022/09/15 09:41:16;;;;;;;;;4.50;4.00;;;;;26.48;38.54;100650.31;5076975;27;45416;-73
2022/09/15 09:43:45;;;;;;;;;5.50;4.25;;;;;26.36;38.22;100651.97;5078426;27;45306;-73
2022/09/15 09:46:16;;;;;;;;;5.50;4.25;;;;;26.03;38.72;100594.19;5081461;27;45428;-72
2022/09/15 09:48:58;;;;;;;;;5.00;3.50;;;;;26.24;38.33;100602.63;5072784;27;45408;-72
2022/09/15 09:51:49;;;;;;;;;5.00;3.50;;;;;26.64;38.61;100651.03;5070861;28;46054;-73
2022/09/15 09:54:19;;;;;;;;;4.00;4.00;;;;;26.78;37.57;100650.13;5067737;28;45649;-73
2022/09/15 09:56:48;;;;;;;;;4.00;4.00;;;;;26.73;38.79;100626.25;5078569;27;45406;-70
2022/09/15 09:59:34;;;;;;;;;3.00;2.75;;;;;27.13;38.16;100652.25;5076706;27;45541;-72
2022/09/15 10:02:06;;;;;;;;;4.75;4.00;;;;;27.31;36.86;100655.50;5076721;28;46320;-73
2022/09/15 10:04:32;;;;;;;;;5.50;5.50;;;;;27.12;38.32;100653.19;5078386;28;45567;-74
2022/09/15 10:06:58;;;;;;;;;4.00;4.00;;;;;27.17;37.47;100618.78;5078457;27;45495;-74
2022/09/15 10:09:24;;;;;;;;;4.00;3.00;;;;;26.67;36.90;100507.59;5076242;27;45437;-76
2022/09/15 10:11:53;;;;;;;;;3.00;3.00;;;;;27.68;37.19;100635.81;5077858;27;45560;-76
2022/09/15 10:14:30;;;;;;;;;4.75;3.25;;;;;27.86;36.50;100652.53;5078890;27;45495;-74
2022/09/15 10:16:57;;;;;;;;;4.00;4.00;;;;;27.72;36.68;100654.44;5075761;27;44854;-73
2022/09/15 10:19:23;;;;;;;;;5.00;4.00;;;;;27.39;37.22;100647.78;5082829;27;45676;-73
2022/09/15 10:21:49;;;;;;;;;7.25;6.00;;;;;27.11;37.48;100636.22;5070513;28;45366;-74
2022/09/15 10:24:41;;;;;;;;;5.75;5.75;;;;;27.12;37.46;100655.88;5067954;28;45907;-73
2022/09/15 10:27:17;;;;;;;;;4.50;4.50;;;;;26.52;37.32;100569.44;5073085;27;45554;-76
2022/09/15 10:29:43;;;;;;;;;5.00;5.00;;;;;27.00;37.64;100658.47;5075085;28;45455;-73
2022/09/15 10:32:20;;;;;;;;;6.25;6.25;;;;;27.12;36.87;100646.00;5075716;27;45505;-72
2022/09/15 10:34:47;;;;;;;;;6.00;5.00;;;;;27.12;36.81;100648.69;5075658;27;45714;-74
2022/09/15 21:44:38;;;;;;;;;7.00;4.67;;;;;20.63;47.28;100850.53;5141637;27;45447;-75
2022/09/15 21:47:04;;;;;;;;;6.00;5.00;;;;;20.88;47.70;100877.09;5127330;27;45479;-76
2022/09/15 21:49:31;;;;;;;;;6.00;5.00;;;;;20.95;47.63;100856.41;5123129;27;45535;-75
2022/09/15 21:51:57;;;;;;;;;7.67;4.33;;;;;20.91;46.72;100825.53;5122040;27;45550;-75
2022/09/15 21:54:23;;;;;;;;;3.00;3.00;;;;;21.08;45.70;100833.72;5115831;27;46113;-75
2022/09/15 21:56:49;;;;;;;;;3.67;3.67;;;;;21.49;46.20;100881.78;5121207;27;45236;-74
2022/09/15 21:59:18;;;;;;;;;4.33;3.00;;;;;21.62;44.95;100874.19;5130489;27;45415;-74
2022/09/15 22:01:45;;;;;;;;;4.00;3.00;;;;;21.68;44.80;100886.38;5123043;27;45335;-77
2022/09/15 22:04:11;;;;;;;;;2.33;2.33;;;;;21.56;44.37;100848.63;5127543;27;46615;-77
2022/09/15 22:06:40;;;;;;;;;3.00;3.00;;;;;21.81;44.89;100883.13;5131966;27;45850;-76
2022/09/15 22:09:09;;;;;;;;;3.00;2.00;;;;;21.56;44.90;100837.13;5120272;27;45425;-81
2022/09/15 22:11:35;;;;;;;;;2.00;2.00;;;;;21.88;44.32;100901.50;5127748;27;45565;-78
2022/09/15 22:14:02;;;;;;;;;2.33;2.33;;;;;21.93;44.08;100892.41;5119700;27;45594;-78
2022/09/15 22:16:28;;;;;;;;;4.00;3.00;;;;;21.84;43.99;100874.13;5132759;27;45518;-80
2022/09/15 22:18:54;;;;;;;;;2.00;2.00;;;;;21.91;43.85;100883.59;5124925;27;45582;-79
2022/09/15 22:21:25;;;;;;;;;2.67;2.00;;;;;21.77;43.37;100852.19;5113919;27;45521;-79
2022/09/15 22:23:54;;;;;;;;;4.00;3.00;;;;;21.93;43.82;100879.06;5126795;27;46426;-79
2022/09/15 22:26:24;;;;;;;;;2.00;2.00;;;;;21.68;43.28;100838.38;5120130;27;46492;-79
2022/09/15 22:28:49;;;;;;;;;2.00;2.00;;;;;21.81;43.37;100850.28;5124671;27;45593;-80
2022/09/15 22:31:17;;;;;;;;;2.00;2.00;;;;;21.57;43.21;100797.09;5125611;27;45520;-77
2022/09/15 22:33:46;;;;;;;;;1.33;1.33;;;;;21.69;43.30;100816.13;5116405;27;45894;-76
2022/09/15 22:36:17;;;;;;;;;2.67;2.33;;;;;21.74;41.84;100830.16;5121082;27;45545;-76
2022/09/15 22:38:43;;;;;;;;;2.67;2.33;;;;;21.96;43.19;100870.94;5124714;27;45769;-76
2022/09/15 22:41:11;;;;;;;;;3.00;2.00;;;;;22.05;42.86;100884.81;5120147;27;45486;-80
2022/09/15 22:43:38;;;;;;;;;3.00;3.00;;;;;22.00;42.72;100885.00;5123523;27;45914;-73
2022/09/15 22:46:05;;;;;;;;;1.00;1.00;;;;;21.94;42.94;100866.59;5121696;27;46523;-75
2022/09/15 22:48:34;;;;;;;;;2.00;2.00;;;;;21.90;42.98;100857.88;5121046;27;45495;-74